sensor_id;sensor_type;location;lat;lon;timestamp;P1;durP1;ratioP1;P2;durP2;ratioP2
33678;SDS011;23143;49.474;11.082;2023-01-10T00:00:10;2.47;;;0.95;;
33678;SDS011;23143;49.474;11.082;2023-01-10T00:00:41;5.90;;;0.90;;
33678;SDS011;23143;49.474;11.082;2023-01-10T00:01:11;5.03;;;0.75;;
33678;SDS011;23143;49.474;11.082;2023-01-10T00:01:42;0.80;;;0.70;;
33678;SDS011;23143;49.474;11.082;2023-01-10T00:02:13;1.20;;;0.85;;
33678;SDS011;23143;49.474;11.082;2023-01-10T00:02:43;0.63;;;0.63;;
33678;SDS011;23143;49.474;11.082;2023-01-10T00:03:14;2.97;;;0.75;;
33678;SDS011;23143;49.474;11.082;2023-01-10T00:03:45;1.60;;;0.80;;
33678;SDS011;23143;49.474;11.082;2023-01-10T00:04:16;0.75;;;0.75;;
33678;SDS011;23143;49.474;11.082;2023-01-10T00:04:46;0.43;;;0.43;;
33678;SDS011;23143;49.474;11.082;2023-01-10T00:05:17;0.70;;;0.60;;
33678;SDS011;23143;49.474;11.082;2023-01-10T00:05:48;1.02;;;0.90;;
33678;SDS011;23143;49.474;11.082;2023-01-10T00:06:19;2.05;;;0.85;;
33678;SDS011;23143;49.474;11.082;2023-01-10T00:06:49;1.10;;;0.80;;
33678;SDS011;23143;49.474;11.082;2023-01-10T00:07:20;0.70;;;0.70;;
33678;SDS011;23143;49.474;11.082;2023-01-10T00:07:51;1.63;;;0.80;;
33678;SDS011;23143;49.474;11.082;2023-01-10T00:08:22;0.45;;;0.45;;
33678;SDS011;23143;49.474;11.082;2023-01-10T00:08:52;3.50;;;1.15;;
33678;SDS011;23143;49.474;11.082;2023-01-10T00:09:23;2.20;;;0.88;;
33678;SDS011;23143;49.474;11.082;2023-01-10T00:09:54;0.80;;;0.80;;
33678;SDS011;23143;49.474;11.082;2023-01-10T00:10:24;1.85;;;0.82;;
33678;SDS011;23143;49.474;11.082;2023-01-10T00:10:55;2.80;;;0.80;;
33678;SDS011;23143;49.474;11.082;2023-01-10T00:11:26;1.27;;;0.80;;
33678;SDS011;23143;49.474;11.082;2023-01-10T00:12:15;2.85;;;1.30;;
33678;SDS011;23143;49.474;11.082;2023-01-10T00:13:04;1.10;;;0.95;;
33678;SDS011;23143;49.474;11.082;2023-01-10T00:13:54;1.50;;;1.00;;
33678;SDS011;23143;49.474;11.082;2023-01-10T00:14:28;0.90;;;0.65;;
33678;SDS011;23143;49.474;11.082;2023-01-10T00:14:59;0.65;;;0.65;;
33678;SDS011;23143;49.474;11.082;2023-01-10T00:15:33;0.70;;;0.70;;
33678;SDS011;23143;49.474;11.082;2023-01-10T00:16:06;1.30;;;1.00;;
33678;SDS011;23143;49.474;11.082;2023-01-10T00:16:38;1.50;;;0.90;;
33678;SDS011;23143;49.474;11.082;2023-01-10T00:17:10;3.00;;;0.98;;
33678;SDS011;23143;49.474;11.082;2023-01-10T00:17:40;3.40;;;0.88;;
33678;SDS011;23143;49.474;11.082;2023-01-10T00:18:11;4.50;;;0.88;;
33678;SDS011;23143;49.474;11.082;2023-01-10T00:18:42;0.65;;;0.65;;
33678;SDS011;23143;49.474;11.082;2023-01-10T00:19:12;1.05;;;0.88;;
33678;SDS011;23143;49.474;11.082;2023-01-10T00:19:43;2.05;;;0.70;;
33678;SDS011;23143;49.474;11.082;2023-01-10T00:20:14;6.07;;;0.98;;
33678;SDS011;23143;49.474;11.082;2023-01-10T00:20:45;1.10;;;0.70;;
33678;SDS011;23143;49.474;11.082;2023-01-10T00:21:16;3.85;;;0.95;;
33678;SDS011;23143;49.474;11.082;2023-01-10T00:21:47;0.75;;;0.75;;
33678;SDS011;23143;49.474;11.082;2023-01-10T00:22:18;9.15;;;1.70;;
33678;SDS011;23143;49.474;11.082;2023-01-10T00:22:52;0.93;;;0.70;;
33678;SDS011;23143;49.474;11.082;2023-01-10T00:23:23;1.15;;;0.90;;
33678;SDS011;23143;49.474;11.082;2023-01-10T00:23:53;2.08;;;1.13;;
33678;SDS011;23143;49.474;11.082;2023-01-10T00:24:27;0.57;;;0.57;;
33678;SDS011;23143;49.474;11.082;2023-01-10T00:24:57;4.50;;;1.15;;
33678;SDS011;23143;49.474;11.082;2023-01-10T00:25:28;2.70;;;1.27;;
33678;SDS011;23143;49.474;11.082;2023-01-10T00:25:59;5.03;;;1.27;;
33678;SDS011;23143;49.474;11.082;2023-01-10T00:26:29;2.30;;;1.30;;
33678;SDS011;23143;49.474;11.082;2023-01-10T00:27:00;5.30;;;1.98;;
33678;SDS011;23143;49.474;11.082;2023-01-10T00:27:32;3.38;;;1.23;;
33678;SDS011;23143;49.474;11.082;2023-01-10T00:28:04;1.10;;;0.98;;
33678;SDS011;23143;49.474;11.082;2023-01-10T00:28:55;6.72;;;1.40;;
33678;SDS011;23143;49.474;11.082;2023-01-10T00:29:27;7.90;;;1.60;;
33678;SDS011;23143;49.474;11.082;2023-01-10T00:30:00;2.40;;;1.20;;
33678;SDS011;23143;49.474;11.082;2023-01-10T00:30:39;2.55;;;1.15;;
33678;SDS011;23143;49.474;11.082;2023-01-10T00:31:09;2.75;;;1.23;;
33678;SDS011;23143;49.474;11.082;2023-01-10T00:31:41;2.05;;;1.25;;
33678;SDS011;23143;49.474;11.082;2023-01-10T00:32:11;1.13;;;0.90;;
33678;SDS011;23143;49.474;11.082;2023-01-10T00:32:43;5.70;;;1.45;;
33678;SDS011;23143;49.474;11.082;2023-01-10T00:33:14;3.35;;;1.27;;
33678;SDS011;23143;49.474;11.082;2023-01-10T00:33:48;3.40;;;1.00;;
33678;SDS011;23143;49.474;11.082;2023-01-10T00:34:19;1.08;;;0.80;;
33678;SDS011;23143;49.474;11.082;2023-01-10T00:34:50;1.13;;;0.73;;
33678;SDS011;23143;49.474;11.082;2023-01-10T00:35:21;1.45;;;1.00;;
33678;SDS011;23143;49.474;11.082;2023-01-10T00:35:52;0.95;;;0.80;;
33678;SDS011;23143;49.474;11.082;2023-01-10T00:36:22;0.70;;;0.70;;
33678;SDS011;23143;49.474;11.082;2023-01-10T00:36:53;1.45;;;0.80;;
33678;SDS011;23143;49.474;11.082;2023-01-10T00:37:24;1.80;;;1.30;;
33678;SDS011;23143;49.474;11.082;2023-01-10T00:37:54;1.67;;;0.88;;
33678;SDS011;23143;49.474;11.082;2023-01-10T00:38:30;1.38;;;0.70;;
33678;SDS011;23143;49.474;11.082;2023-01-10T00:39:04;2.78;;;1.10;;
33678;SDS011;23143;49.474;11.082;2023-01-10T00:39:35;1.50;;;1.00;;
33678;SDS011;23143;49.474;11.082;2023-01-10T00:40:06;1.05;;;0.70;;
33678;SDS011;23143;49.474;11.082;2023-01-10T00:40:38;1.67;;;1.00;;
33678;SDS011;23143;49.474;11.082;2023-01-10T00:41:09;0.88;;;0.88;;
33678;SDS011;23143;49.474;11.082;2023-01-10T00:41:59;1.15;;;0.65;;
33678;SDS011;23143;49.474;11.082;2023-01-10T00:42:49;0.95;;;0.85;;
33678;SDS011;23143;49.474;11.082;2023-01-10T00:43:38;1.52;;;1.20;;
33678;SDS011;23143;49.474;11.082;2023-01-10T00:44:27;1.33;;;1.15;;
33678;SDS011;23143;49.474;11.082;2023-01-10T00:44:58;3.78;;;0.80;;
33678;SDS011;23143;49.474;11.082;2023-01-10T00:45:28;2.05;;;0.82;;
33678;SDS011;23143;49.474;11.082;2023-01-10T00:45:59;1.08;;;0.98;;
33678;SDS011;23143;49.474;11.082;2023-01-10T00:46:31;4.60;;;0.90;;
33678;SDS011;23143;49.474;11.082;2023-01-10T00:47:02;1.50;;;0.93;;
33678;SDS011;23143;49.474;11.082;2023-01-10T00:47:33;3.03;;;0.82;;
33678;SDS011;23143;49.474;11.082;2023-01-10T00:48:03;1.30;;;1.00;;
33678;SDS011;23143;49.474;11.082;2023-01-10T00:48:34;0.70;;;0.70;;
33678;SDS011;23143;49.474;11.082;2023-01-10T00:49:05;2.15;;;1.13;;
33678;SDS011;23143;49.474;11.082;2023-01-10T00:49:40;2.55;;;1.08;;
33678;SDS011;23143;49.474;11.082;2023-01-10T00:50:11;1.17;;;0.95;;
33678;SDS011;23143;49.474;11.082;2023-01-10T00:50:42;3.40;;;1.45;;
33678;SDS011;23143;49.474;11.082;2023-01-10T00:51:13;1.25;;;1.05;;
33678;SDS011;23143;49.474;11.082;2023-01-10T00:51:43;3.63;;;1.35;;
33678;SDS011;23143;49.474;11.082;2023-01-10T00:52:14;2.08;;;1.25;;
33678;SDS011;23143;49.474;11.082;2023-01-10T00:52:45;1.55;;;1.08;;
33678;SDS011;23143;49.474;11.082;2023-01-10T00:53:16;1.38;;;1.27;;
33678;SDS011;23143;49.474;11.082;2023-01-10T00:53:46;0.75;;;0.75;;
33678;SDS011;23143;49.474;11.082;2023-01-10T00:54:17;1.73;;;1.17;;
33678;SDS011;23143;49.474;11.082;2023-01-10T00:54:48;2.63;;;1.42;;
33678;SDS011;23143;49.474;11.082;2023-01-10T00:55:19;2.75;;;1.00;;
33678;SDS011;23143;49.474;11.082;2023-01-10T00:55:49;1.88;;;0.95;;
33678;SDS011;23143;49.474;11.082;2023-01-10T00:56:20;1.58;;;1.23;;
33678;SDS011;23143;49.474;11.082;2023-01-10T00:56:51;1.20;;;1.10;;
33678;SDS011;23143;49.474;11.082;2023-01-10T00:57:21;1.88;;;1.38;;
33678;SDS011;23143;49.474;11.082;2023-01-10T00:57:52;1.60;;;1.17;;
33678;SDS011;23143;49.474;11.082;2023-01-10T00:58:23;3.50;;;1.65;;
33678;SDS011;23143;49.474;11.082;2023-01-10T00:58:53;1.48;;;1.08;;
33678;SDS011;23143;49.474;11.082;2023-01-10T00:59:24;1.73;;;1.33;;
33678;SDS011;23143;49.474;11.082;2023-01-10T00:59:55;3.15;;;1.10;;
33678;SDS011;23143;49.474;11.082;2023-01-10T01:00:25;1.88;;;1.00;;
33678;SDS011;23143;49.474;11.082;2023-01-10T01:00:57;1.77;;;1.30;;
33678;SDS011;23143;49.474;11.082;2023-01-10T01:01:27;1.10;;;1.00;;
33678;SDS011;23143;49.474;11.082;2023-01-10T01:01:58;1.85;;;1.15;;
33678;SDS011;23143;49.474;11.082;2023-01-10T01:02:29;1.30;;;0.93;;
33678;SDS011;23143;49.474;11.082;2023-01-10T01:02:59;4.95;;;1.35;;
33678;SDS011;23143;49.474;11.082;2023-01-10T01:03:30;1.00;;;0.90;;
33678;SDS011;23143;49.474;11.082;2023-01-10T01:04:00;0.90;;;0.90;;
33678;SDS011;23143;49.474;11.082;2023-01-10T01:04:31;4.22;;;1.02;;
33678;SDS011;23143;49.474;11.082;2023-01-10T01:05:05;2.45;;;1.30;;
33678;SDS011;23143;49.474;11.082;2023-01-10T01:05:40;2.05;;;0.90;;
33678;SDS011;23143;49.474;11.082;2023-01-10T01:06:11;1.88;;;0.80;;
33678;SDS011;23143;49.474;11.082;2023-01-10T01:06:45;3.80;;;0.95;;
33678;SDS011;23143;49.474;11.082;2023-01-10T01:07:16;1.00;;;0.90;;
33678;SDS011;23143;49.474;11.082;2023-01-10T01:07:48;1.02;;;0.93;;
33678;SDS011;23143;49.474;11.082;2023-01-10T01:08:19;1.85;;;1.48;;
33678;SDS011;23143;49.474;11.082;2023-01-10T01:08:49;1.20;;;1.10;;
33678;SDS011;23143;49.474;11.082;2023-01-10T01:09:20;2.53;;;1.25;;
33678;SDS011;23143;49.474;11.082;2023-01-10T01:09:51;1.50;;;1.15;;
33678;SDS011;23143;49.474;11.082;2023-01-10T01:10:40;1.48;;;1.38;;
33678;SDS011;23143;49.474;11.082;2023-01-10T01:11:11;2.80;;;1.42;;
33678;SDS011;23143;49.474;11.082;2023-01-10T01:11:42;3.40;;;1.23;;
33678;SDS011;23143;49.474;11.082;2023-01-10T01:12:13;1.17;;;1.10;;
33678;SDS011;23143;49.474;11.082;2023-01-10T01:12:43;1.23;;;1.13;;
33678;SDS011;23143;49.474;11.082;2023-01-10T01:13:15;2.42;;;1.30;;
33678;SDS011;23143;49.474;11.082;2023-01-10T01:13:49;1.13;;;1.03;;
33678;SDS011;23143;49.474;11.082;2023-01-10T01:14:21;1.85;;;1.10;;
33678;SDS011;23143;49.474;11.082;2023-01-10T01:14:52;1.20;;;1.00;;
33678;SDS011;23143;49.474;11.082;2023-01-10T01:15:23;4.55;;;1.17;;
33678;SDS011;23143;49.474;11.082;2023-01-10T01:15:58;1.50;;;1.13;;
33678;SDS011;23143;49.474;11.082;2023-01-10T01:16:29;1.10;;;0.85;;
33678;SDS011;23143;49.474;11.082;2023-01-10T01:17:00;4.40;;;1.10;;
33678;SDS011;23143;49.474;11.082;2023-01-10T01:17:30;2.60;;;1.58;;
33678;SDS011;23143;49.474;11.082;2023-01-10T01:18:01;0.77;;;0.77;;
33678;SDS011;23143;49.474;11.082;2023-01-10T01:18:33;3.05;;;1.10;;
33678;SDS011;23143;49.474;11.082;2023-01-10T01:19:04;1.20;;;1.10;;
33678;SDS011;23143;49.474;11.082;2023-01-10T01:19:34;1.63;;;1.30;;
33678;SDS011;23143;49.474;11.082;2023-01-10T01:20:05;2.13;;;1.15;;
33678;SDS011;23143;49.474;11.082;2023-01-10T01:20:37;1.80;;;1.02;;
33678;SDS011;23143;49.474;11.082;2023-01-10T01:21:09;2.00;;;1.15;;
33678;SDS011;23143;49.474;11.082;2023-01-10T01:21:39;1.30;;;1.20;;
33678;SDS011;23143;49.474;11.082;2023-01-10T01:22:10;2.00;;;1.17;;
33678;SDS011;23143;49.474;11.082;2023-01-10T01:22:41;1.33;;;1.02;;
33678;SDS011;23143;49.474;11.082;2023-01-10T01:23:12;0.85;;;0.82;;
33678;SDS011;23143;49.474;11.082;2023-01-10T01:23:43;0.80;;;0.80;;
33678;SDS011;23143;49.474;11.082;2023-01-10T01:24:14;4.13;;;1.52;;
33678;SDS011;23143;49.474;11.082;2023-01-10T01:24:45;1.35;;;1.25;;
33678;SDS011;23143;49.474;11.082;2023-01-10T01:25:15;4.15;;;1.42;;
33678;SDS011;23143;49.474;11.082;2023-01-10T01:25:48;2.47;;;1.17;;
33678;SDS011;23143;49.474;11.082;2023-01-10T01:26:20;2.15;;;1.13;;
33678;SDS011;23143;49.474;11.082;2023-01-10T01:26:54;2.63;;;1.40;;
33678;SDS011;23143;49.474;11.082;2023-01-10T01:27:24;1.85;;;1.10;;
33678;SDS011;23143;49.474;11.082;2023-01-10T01:27:55;1.02;;;1.00;;
33678;SDS011;23143;49.474;11.082;2023-01-10T01:28:26;1.58;;;0.90;;
33678;SDS011;23143;49.474;11.082;2023-01-10T01:28:56;1.73;;;1.13;;
33678;SDS011;23143;49.474;11.082;2023-01-10T01:29:27;1.55;;;1.45;;
33678;SDS011;23143;49.474;11.082;2023-01-10T01:29:58;2.00;;;1.35;;
33678;SDS011;23143;49.474;11.082;2023-01-10T01:30:28;1.15;;;1.05;;
33678;SDS011;23143;49.474;11.082;2023-01-10T01:31:05;2.35;;;1.40;;
33678;SDS011;23143;49.474;11.082;2023-01-10T01:31:36;7.85;;;1.50;;
33678;SDS011;23143;49.474;11.082;2023-01-10T01:32:07;1.27;;;1.17;;
33678;SDS011;23143;49.474;11.082;2023-01-10T01:32:38;1.73;;;1.30;;
33678;SDS011;23143;49.474;11.082;2023-01-10T01:33:08;1.90;;;1.38;;
33678;SDS011;23143;49.474;11.082;2023-01-10T01:33:39;1.52;;;1.40;;
33678;SDS011;23143;49.474;11.082;2023-01-10T01:34:10;1.65;;;1.20;;
33678;SDS011;23143;49.474;11.082;2023-01-10T01:34:40;4.25;;;1.50;;
33678;SDS011;23143;49.474;11.082;2023-01-10T01:35:11;1.75;;;1.48;;
33678;SDS011;23143;49.474;11.082;2023-01-10T01:35:45;1.88;;;1.10;;
33678;SDS011;23143;49.474;11.082;2023-01-10T01:36:16;2.05;;;1.20;;
33678;SDS011;23143;49.474;11.082;2023-01-10T01:36:47;2.83;;;1.55;;
33678;SDS011;23143;49.474;11.082;2023-01-10T01:37:20;3.95;;;1.75;;
33678;SDS011;23143;49.474;11.082;2023-01-10T01:37:51;1.30;;;1.20;;
33678;SDS011;23143;49.474;11.082;2023-01-10T01:38:21;1.40;;;1.23;;
33678;SDS011;23143;49.474;11.082;2023-01-10T01:38:52;3.28;;;1.20;;
33678;SDS011;23143;49.474;11.082;2023-01-10T01:39:23;1.52;;;1.08;;
33678;SDS011;23143;49.474;11.082;2023-01-10T01:39:53;1.48;;;1.10;;
33678;SDS011;23143;49.474;11.082;2023-01-10T01:40:24;1.42;;;1.20;;
33678;SDS011;23143;49.474;11.082;2023-01-10T01:40:55;1.90;;;1.33;;
33678;SDS011;23143;49.474;11.082;2023-01-10T01:41:26;1.27;;;1.10;;
33678;SDS011;23143;49.474;11.082;2023-01-10T01:43:01;1.08;;;0.90;;
33678;SDS011;23143;49.474;11.082;2023-01-10T01:43:56;1.13;;;1.00;;
33678;SDS011;23143;49.474;11.082;2023-01-10T01:44:36;1.10;;;0.90;;
33678;SDS011;23143;49.474;11.082;2023-01-10T01:46:01;1.00;;;0.90;;
33678;SDS011;23143;49.474;11.082;2023-01-10T01:46:34;2.17;;;0.98;;
33678;SDS011;23143;49.474;11.082;2023-01-10T01:47:07;1.50;;;1.40;;
33678;SDS011;23143;49.474;11.082;2023-01-10T01:47:48;1.48;;;0.98;;
33678;SDS011;23143;49.474;11.082;2023-01-10T01:48:35;1.55;;;1.17;;
33678;SDS011;23143;49.474;11.082;2023-01-10T01:49:10;4.82;;;1.45;;
33678;SDS011;23143;49.474;11.082;2023-01-10T01:49:46;1.30;;;1.00;;
33678;SDS011;23143;49.474;11.082;2023-01-10T01:50:20;1.55;;;1.40;;
33678;SDS011;23143;49.474;11.082;2023-01-10T01:51:10;3.80;;;1.52;;
33678;SDS011;23143;49.474;11.082;2023-01-10T01:51:45;1.50;;;1.25;;
33678;SDS011;23143;49.474;11.082;2023-01-10T01:52:21;1.40;;;1.30;;
33678;SDS011;23143;49.474;11.082;2023-01-10T01:52:57;1.80;;;1.17;;
33678;SDS011;23143;49.474;11.082;2023-01-10T01:53:31;1.73;;;1.33;;
33678;SDS011;23143;49.474;11.082;2023-01-10T01:54:10;3.22;;;1.40;;
33678;SDS011;23143;49.474;11.082;2023-01-10T01:54:41;1.67;;;1.42;;
33678;SDS011;23143;49.474;11.082;2023-01-10T01:55:11;1.92;;;1.20;;
33678;SDS011;23143;49.474;11.082;2023-01-10T01:55:42;1.50;;;1.00;;
33678;SDS011;23143;49.474;11.082;2023-01-10T01:56:18;1.73;;;1.00;;
33678;SDS011;23143;49.474;11.082;2023-01-10T01:56:57;1.70;;;1.35;;
33678;SDS011;23143;49.474;11.082;2023-01-10T01:57:32;2.40;;;1.48;;
33678;SDS011;23143;49.474;11.082;2023-01-10T01:58:05;1.40;;;0.93;;
33678;SDS011;23143;49.474;11.082;2023-01-10T01:58:58;1.38;;;1.23;;
33678;SDS011;23143;49.474;11.082;2023-01-10T01:59:47;2.33;;;1.00;;
33678;SDS011;23143;49.474;11.082;2023-01-10T02:00:19;2.25;;;1.33;;
33678;SDS011;23143;49.474;11.082;2023-01-10T02:00:50;1.38;;;1.25;;
33678;SDS011;23143;49.474;11.082;2023-01-10T02:01:20;1.80;;;1.25;;
33678;SDS011;23143;49.474;11.082;2023-01-10T02:01:53;4.05;;;1.48;;
33678;SDS011;23143;49.474;11.082;2023-01-10T02:02:30;1.33;;;1.17;;
33678;SDS011;23143;49.474;11.082;2023-01-10T02:03:03;0.85;;;0.85;;
33678;SDS011;23143;49.474;11.082;2023-01-10T02:03:35;2.75;;;1.45;;
33678;SDS011;23143;49.474;11.082;2023-01-10T02:04:14;1.92;;;1.33;;
33678;SDS011;23143;49.474;11.082;2023-01-10T02:05:26;1.23;;;1.05;;
33678;SDS011;23143;49.474;11.082;2023-01-10T02:05:56;2.47;;;1.30;;
33678;SDS011;23143;49.474;11.082;2023-01-10T02:06:27;1.27;;;1.00;;
33678;SDS011;23143;49.474;11.082;2023-01-10T02:06:58;2.53;;;1.30;;
33678;SDS011;23143;49.474;11.082;2023-01-10T02:07:30;1.58;;;1.10;;
33678;SDS011;23143;49.474;11.082;2023-01-10T02:08:03;1.20;;;1.10;;
33678;SDS011;23143;49.474;11.082;2023-01-10T02:08:34;1.02;;;1.00;;
33678;SDS011;23143;49.474;11.082;2023-01-10T02:09:25;2.97;;;1.10;;
33678;SDS011;23143;49.474;11.082;2023-01-10T02:10:05;1.15;;;0.90;;
33678;SDS011;23143;49.474;11.082;2023-01-10T02:10:43;1.23;;;1.00;;
33678;SDS011;23143;49.474;11.082;2023-01-10T02:11:33;1.20;;;1.08;;
33678;SDS011;23143;49.474;11.082;2023-01-10T02:12:03;1.30;;;1.02;;
33678;SDS011;23143;49.474;11.082;2023-01-10T02:12:34;1.58;;;1.20;;
33678;SDS011;23143;49.474;11.082;2023-01-10T02:13:06;3.08;;;0.95;;
33678;SDS011;23143;49.474;11.082;2023-01-10T02:13:41;0.75;;;0.75;;
33678;SDS011;23143;49.474;11.082;2023-01-10T02:14:13;1.98;;;1.30;;
33678;SDS011;23143;49.474;11.082;2023-01-10T02:14:46;1.92;;;0.93;;
33678;SDS011;23143;49.474;11.082;2023-01-10T02:15:19;2.83;;;1.42;;
33678;SDS011;23143;49.474;11.082;2023-01-10T02:15:50;2.33;;;1.20;;
33678;SDS011;23143;49.474;11.082;2023-01-10T02:16:20;2.17;;;1.30;;
33678;SDS011;23143;49.474;11.082;2023-01-10T02:16:51;2.90;;;0.82;;
33678;SDS011;23143;49.474;11.082;2023-01-10T02:17:22;1.80;;;1.00;;
33678;SDS011;23143;49.474;11.082;2023-01-10T02:17:53;1.13;;;1.02;;
33678;SDS011;23143;49.474;11.082;2023-01-10T02:18:23;1.15;;;1.00;;
33678;SDS011;23143;49.474;11.082;2023-01-10T02:18:54;2.25;;;1.02;;
33678;SDS011;23143;49.474;11.082;2023-01-10T02:20:06;2.25;;;1.38;;
33678;SDS011;23143;49.474;11.082;2023-01-10T02:23:21;0.88;;;0.80;;
33678;SDS011;23143;49.474;11.082;2023-01-10T02:26:57;1.70;;;0.87;;
33678;SDS011;23143;49.474;11.082;2023-01-10T02:30:32;0.90;;;0.80;;
33678;SDS011;23143;49.474;11.082;2023-01-10T02:32:27;1.23;;;0.80;;
33678;SDS011;23143;49.474;11.082;2023-01-10T02:35:53;0.88;;;0.75;;
33678;SDS011;23143;49.474;11.082;2023-01-10T02:38:44;1.15;;;0.90;;
33678;SDS011;23143;49.474;11.082;2023-01-10T02:40:29;1.58;;;0.98;;
33678;SDS011;23143;49.474;11.082;2023-01-10T02:42:06;0.80;;;0.80;;
33678;SDS011;23143;49.474;11.082;2023-01-10T02:42:42;4.40;;;1.00;;
33678;SDS011;23143;49.474;11.082;2023-01-10T02:43:21;1.00;;;0.90;;
33678;SDS011;23143;49.474;11.082;2023-01-10T02:44:03;1.88;;;1.08;;
33678;SDS011;23143;49.474;11.082;2023-01-10T02:44:55;1.87;;;1.00;;
33678;SDS011;23143;49.474;11.082;2023-01-10T02:45:35;0.90;;;0.90;;
33678;SDS011;23143;49.474;11.082;2023-01-10T02:46:16;0.90;;;0.85;;
33678;SDS011;23143;49.474;11.082;2023-01-10T02:46:54;0.73;;;0.73;;
33678;SDS011;23143;49.474;11.082;2023-01-10T02:47:25;1.30;;;0.98;;
33678;SDS011;23143;49.474;11.082;2023-01-10T02:47:56;2.15;;;1.00;;
33678;SDS011;23143;49.474;11.082;2023-01-10T02:48:27;1.70;;;0.88;;
33678;SDS011;23143;49.474;11.082;2023-01-10T02:48:58;4.03;;;1.10;;
33678;SDS011;23143;49.474;11.082;2023-01-10T02:49:28;1.35;;;1.00;;
33678;SDS011;23143;49.474;11.082;2023-01-10T02:50:15;1.00;;;0.90;;
33678;SDS011;23143;49.474;11.082;2023-01-10T02:51:34;0.60;;;0.60;;
33678;SDS011;23143;49.474;11.082;2023-01-10T02:52:04;0.80;;;0.80;;
33678;SDS011;23143;49.474;11.082;2023-01-10T02:52:35;1.38;;;1.20;;
33678;SDS011;23143;49.474;11.082;2023-01-10T02:53:08;2.72;;;1.50;;
33678;SDS011;23143;49.474;11.082;2023-01-10T02:53:43;2.80;;;1.45;;
33678;SDS011;23143;49.474;11.082;2023-01-10T02:54:20;4.60;;;1.00;;
33678;SDS011;23143;49.474;11.082;2023-01-10T02:54:57;0.95;;;0.90;;
33678;SDS011;23143;49.474;11.082;2023-01-10T02:55:40;1.58;;;1.08;;
33678;SDS011;23143;49.474;11.082;2023-01-10T02:56:24;1.17;;;1.03;;
33678;SDS011;23143;49.474;11.082;2023-01-10T03:03:42;1.13;;;1.05;;
33678;SDS011;23143;49.474;11.082;2023-01-10T03:04:50;4.07;;;1.45;;
33678;SDS011;23143;49.474;11.082;2023-01-10T03:06:13;1.00;;;1.00;;
33678;SDS011;23143;49.474;11.082;2023-01-10T03:07:52;0.93;;;0.90;;
33678;SDS011;23143;49.474;11.082;2023-01-10T03:08:32;1.73;;;1.40;;
33678;SDS011;23143;49.474;11.082;2023-01-10T03:09:49;2.67;;;1.03;;
33678;SDS011;23143;49.474;11.082;2023-01-10T03:10:36;0.80;;;0.80;;
33678;SDS011;23143;49.474;11.082;2023-01-10T03:11:20;1.63;;;1.10;;
33678;SDS011;23143;49.474;11.082;2023-01-10T03:12:11;6.80;;;1.15;;
33678;SDS011;23143;49.474;11.082;2023-01-10T03:12:50;1.65;;;1.30;;
33678;SDS011;23143;49.474;11.082;2023-01-10T03:14:16;5.18;;;1.30;;
33678;SDS011;23143;49.474;11.082;2023-01-10T03:14:49;1.70;;;1.40;;
33678;SDS011;23143;49.474;11.082;2023-01-10T03:15:20;5.20;;;1.67;;
33678;SDS011;23143;49.474;11.082;2023-01-10T03:15:52;2.13;;;1.30;;
33678;SDS011;23143;49.474;11.082;2023-01-10T03:16:25;2.10;;;1.30;;
33678;SDS011;23143;49.474;11.082;2023-01-10T03:16:59;1.30;;;1.20;;
33678;SDS011;23143;49.474;11.082;2023-01-10T03:17:32;1.98;;;1.30;;
33678;SDS011;23143;49.474;11.082;2023-01-10T03:18:05;1.30;;;1.20;;
33678;SDS011;23143;49.474;11.082;2023-01-10T03:19:01;1.83;;;1.50;;
33678;SDS011;23143;49.474;11.082;2023-01-10T03:19:35;1.48;;;1.23;;
33678;SDS011;23143;49.474;11.082;2023-01-10T03:20:09;8.05;;;1.48;;
33678;SDS011;23143;49.474;11.082;2023-01-10T03:20:41;2.05;;;1.60;;
33678;SDS011;23143;49.474;11.082;2023-01-10T03:21:14;1.73;;;1.30;;
33678;SDS011;23143;49.474;11.082;2023-01-10T03:21:46;1.67;;;1.27;;
33678;SDS011;23143;49.474;11.082;2023-01-10T03:22:17;1.45;;;1.35;;
33678;SDS011;23143;49.474;11.082;2023-01-10T03:22:48;2.45;;;1.67;;
33678;SDS011;23143;49.474;11.082;2023-01-10T03:23:20;1.42;;;1.20;;
33678;SDS011;23143;49.474;11.082;2023-01-10T03:23:52;3.22;;;1.90;;
33678;SDS011;23143;49.474;11.082;2023-01-10T03:24:30;2.70;;;1.35;;
33678;SDS011;23143;49.474;11.082;2023-01-10T03:25:04;1.45;;;1.35;;
33678;SDS011;23143;49.474;11.082;2023-01-10T03:25:37;1.63;;;1.48;;
33678;SDS011;23143;49.474;11.082;2023-01-10T03:26:09;2.80;;;1.80;;
33678;SDS011;23143;49.474;11.082;2023-01-10T03:28:20;1.40;;;1.30;;
33678;SDS011;23143;49.474;11.082;2023-01-10T03:29:04;1.50;;;1.10;;
33678;SDS011;23143;49.474;11.082;2023-01-10T03:30:48;1.63;;;1.20;;
33678;SDS011;23143;49.474;11.082;2023-01-10T03:31:22;3.35;;;1.52;;
33678;SDS011;23143;49.474;11.082;2023-01-10T03:32:10;1.87;;;1.50;;
33678;SDS011;23143;49.474;11.082;2023-01-10T03:32:43;1.45;;;1.30;;
33678;SDS011;23143;49.474;11.082;2023-01-10T03:33:15;2.28;;;1.55;;
33678;SDS011;23143;49.474;11.082;2023-01-10T03:33:48;1.50;;;1.17;;
33678;SDS011;23143;49.474;11.082;2023-01-10T03:34:19;4.70;;;1.55;;
33678;SDS011;23143;49.474;11.082;2023-01-10T03:34:50;1.85;;;1.35;;
33678;SDS011;23143;49.474;11.082;2023-01-10T03:35:21;4.15;;;1.80;;
33678;SDS011;23143;49.474;11.082;2023-01-10T03:37:37;3.17;;;1.50;;
33678;SDS011;23143;49.474;11.082;2023-01-10T03:38:23;2.00;;;1.30;;
33678;SDS011;23143;49.474;11.082;2023-01-10T03:39:06;1.90;;;1.70;;
33678;SDS011;23143;49.474;11.082;2023-01-10T03:39:46;2.33;;;1.80;;
33678;SDS011;23143;49.474;11.082;2023-01-10T03:40:34;4.28;;;1.67;;
33678;SDS011;23143;49.474;11.082;2023-01-10T03:43:01;1.73;;;1.33;;
33678;SDS011;23143;49.474;11.082;2023-01-10T03:45:05;1.33;;;1.23;;
33678;SDS011;23143;49.474;11.082;2023-01-10T03:45:48;1.73;;;1.48;;
33678;SDS011;23143;49.474;11.082;2023-01-10T03:46:28;1.90;;;1.40;;
33678;SDS011;23143;49.474;11.082;2023-01-10T03:47:53;2.20;;;1.50;;
33678;SDS011;23143;49.474;11.082;2023-01-10T03:48:26;3.25;;;1.95;;
33678;SDS011;23143;49.474;11.082;2023-01-10T03:48:59;2.28;;;1.70;;
33678;SDS011;23143;49.474;11.082;2023-01-10T03:49:33;1.60;;;1.40;;
33678;SDS011;23143;49.474;11.082;2023-01-10T03:50:41;2.83;;;1.65;;
33678;SDS011;23143;49.474;11.082;2023-01-10T03:51:13;2.75;;;1.80;;
33678;SDS011;23143;49.474;11.082;2023-01-10T03:51:44;3.10;;;1.70;;
33678;SDS011;23143;49.474;11.082;2023-01-10T03:52:16;4.07;;;2.17;;
33678;SDS011;23143;49.474;11.082;2023-01-10T03:52:48;2.38;;;1.65;;
33678;SDS011;23143;49.474;11.082;2023-01-10T03:53:18;4.15;;;2.22;;
33678;SDS011;23143;49.474;11.082;2023-01-10T03:53:49;2.55;;;1.83;;
33678;SDS011;23143;49.474;11.082;2023-01-10T03:54:20;2.88;;;2.47;;
33678;SDS011;23143;49.474;11.082;2023-01-10T03:54:50;2.97;;;1.80;;
33678;SDS011;23143;49.474;11.082;2023-01-10T03:55:23;1.70;;;1.60;;
33678;SDS011;23143;49.474;11.082;2023-01-10T03:55:56;3.88;;;2.17;;
33678;SDS011;23143;49.474;11.082;2023-01-10T03:56:27;2.33;;;1.80;;
33678;SDS011;23143;49.474;11.082;2023-01-10T03:56:57;2.30;;;2.10;;
33678;SDS011;23143;49.474;11.082;2023-01-10T03:57:28;2.55;;;1.73;;
33678;SDS011;23143;49.474;11.082;2023-01-10T03:57:59;2.70;;;1.85;;
33678;SDS011;23143;49.474;11.082;2023-01-10T03:58:29;2.53;;;2.00;;
33678;SDS011;23143;49.474;11.082;2023-01-10T03:59:00;2.65;;;1.73;;
33678;SDS011;23143;49.474;11.082;2023-01-10T03:59:31;1.98;;;1.60;;
33678;SDS011;23143;49.474;11.082;2023-01-10T04:00:01;2.03;;;1.60;;
33678;SDS011;23143;49.474;11.082;2023-01-10T04:00:33;3.67;;;1.77;;